createdAt,value
2017-10-20T00:00:49.887Z,1011.68
2017-10-20T00:02:12.099Z,1011.62
2017-10-20T00:03:34.294Z,1011.68
2017-10-20T00:04:56.146Z,1011.65
2017-10-20T00:06:18.416Z,1011.68
2017-10-20T00:07:40.566Z,1011.65
2017-10-20T00:09:02.445Z,1011.63
2017-10-20T00:10:24.288Z,1011.68
2017-10-20T00:11:46.466Z,1011.66
2017-10-20T00:14:45.455Z,1011.68
2017-10-20T00:16:07.630Z,1011.69
2017-10-20T00:17:29.485Z,1011.68
2017-10-20T00:18:51.384Z,1011.7
2017-10-20T00:20:12.564Z,1011.66
2017-10-20T00:21:34.085Z,1011.71
2017-10-20T00:22:56.705Z,1011.74
2017-10-20T00:24:19.565Z,1011.74
2017-10-20T00:25:41.795Z,1011.67
2017-10-20T00:27:03.300Z,1011.68
2017-10-20T00:28:25.145Z,1011.69
2017-10-20T00:29:47.909Z,1011.68
2017-10-20T00:31:09.417Z,1011.71
2017-10-20T00:32:30.936Z,1011.68
2017-10-20T00:33:53.447Z,1011.7
2017-10-20T00:35:15.635Z,1011.76
2017-10-20T00:36:36.818Z,1011.74
2017-10-20T00:37:59.082Z,1011.74
2017-10-20T00:39:20.574Z,1011.71
2017-10-20T00:40:42.435Z,1011.71
2017-10-20T00:42:04.265Z,1011.68
2017-10-20T00:43:26.178Z,1011.67
2017-10-20T00:44:48.369Z,1011.64
2017-10-20T00:46:10.895Z,1011.58
2017-10-20T00:47:32.735Z,1011.61
2017-10-20T00:48:55.246Z,1011.53
2017-10-20T00:50:17.088Z,1011.57
2017-10-20T00:51:38.850Z,1011.52
2017-10-20T00:53:01.444Z,1011.49
2017-10-20T00:54:23.335Z,1011.51
2017-10-20T00:55:44.838Z,1011.56
2017-10-20T00:57:06.675Z,1011.56
2017-10-20T00:58:28.852Z,1011.57
2017-10-20T00:59:51.016Z,1011.58
2017-10-20T01:01:13.525Z,1011.58
2017-10-20T01:02:35.364Z,1011.59
2017-10-20T01:03:56.545Z,1011.6
2017-10-20T01:05:18.398Z,1011.56
2017-10-20T01:06:39.240Z,1011.55
2017-10-20T01:08:01.684Z,1011.57
2017-10-20T01:09:23.544Z,1011.54
2017-10-20T01:10:45.724Z,1011.45
2017-10-20T01:12:07.253Z,1011.51
2017-10-20T01:13:29.353Z,1011.54
2017-10-20T01:14:51.530Z,1011.47
2017-10-20T01:16:13.756Z,1011.43
2017-10-20T01:17:35.932Z,1011.46
2017-10-20T01:18:58.374Z,1011.42
2017-10-20T01:20:19.883Z,1011.45
2017-10-20T01:21:42.058Z,1011.5
2017-10-20T01:23:04.604Z,1011.46
2017-10-20T01:24:27.357Z,1011.44
2017-10-20T01:25:49.197Z,1011.4
2017-10-20T01:27:11.741Z,1011.38
2017-10-20T01:28:33.316Z,1011.36
2017-10-20T01:29:55.645Z,1011.38
2017-10-20T01:31:18.406Z,1011.36
2017-10-20T01:32:39.902Z,1011.38
2017-10-20T01:34:02.417Z,1011.39
2017-10-20T01:35:24.222Z,1011.39
2017-10-20T01:36:46.126Z,1011.37
2017-10-20T01:38:08.317Z,1011.32
2017-10-20T01:39:30.156Z,1011.32
2017-10-20T01:40:51.994Z,1011.26
2017-10-20T01:42:13.505Z,1011.28
2017-10-20T01:43:35.398Z,1011.29
2017-10-20T01:44:57.906Z,1011.31
2017-10-20T01:46:19.763Z,1011.28
2017-10-20T01:47:41.623Z,1011.33
2017-10-20T01:49:03.825Z,1011.33
2017-10-20T01:50:25.686Z,1011.33
2017-10-20T01:51:47.812Z,1011.29
2017-10-20T01:53:09.659Z,1011.26
2017-10-20T01:54:31.507Z,1011.24
2017-10-20T01:55:53.729Z,1011.18
2017-10-20T01:57:16.557Z,1011.25
2017-10-20T01:58:38.816Z,1011.27
2017-10-20T02:00:00.986Z,1011.26
2017-10-20T02:01:23.154Z,1011.27
2017-10-20T02:02:44.996Z,1011.3
2017-10-20T02:04:07.185Z,1011.28
2017-10-20T02:05:28.708Z,1011.23
2017-10-20T02:06:51.214Z,1011.23
2017-10-20T02:08:12.647Z,1011.25
2017-10-20T02:09:34.506Z,1011.26
2017-10-20T02:10:57.042Z,1011.27
2017-10-20T02:12:18.934Z,1011.23
2017-10-20T02:13:41.835Z,1011.22
2017-10-20T02:15:03.376Z,1011.25
2017-10-20T02:16:25.913Z,1011.22
2017-10-20T02:17:47.894Z,1011.24
2017-10-20T02:19:09.724Z,1011.24
2017-10-20T02:20:31.563Z,1011.22
2017-10-20T02:21:53.164Z,1011.19
2017-10-20T02:23:15.694Z,1011.15
2017-10-20T02:24:37.773Z,1011.16
2017-10-20T02:25:59.952Z,1011.11
2017-10-20T02:27:21.802Z,1011.14
2017-10-20T02:28:43.640Z,1011.16
2017-10-20T02:30:05.769Z,1011.1
2017-10-20T02:31:28.097Z,1011.14
2017-10-20T02:32:49.614Z,1011.15
2017-10-20T02:34:11.133Z,1011.17
2017-10-20T02:35:32.954Z,1011.2
2017-10-20T02:36:55.215Z,1011.19
2017-10-20T02:38:17.437Z,1011.16
2017-10-20T02:39:39.619Z,1011.15
2017-10-20T02:41:02.483Z,1011.09
2017-10-20T02:42:24.332Z,1011.11
2017-10-20T02:43:45.515Z,1011.12
2017-10-20T02:45:06.676Z,1011.04
2017-10-20T02:46:29.109Z,1011.04
2017-10-20T02:47:50.769Z,1011
2017-10-20T02:49:13.128Z,1011.05
2017-10-20T02:50:34.977Z,1011.02
2017-10-20T02:51:56.795Z,1011.02
2017-10-20T02:53:19.304Z,1011.07
2017-10-20T02:54:41.144Z,1011.07
2017-10-20T02:56:02.831Z,1011.03
2017-10-20T02:57:25.254Z,1010.99
2017-10-20T02:58:47.126Z,1010.99
2017-10-20T03:00:09.665Z,1011.01
2017-10-20T03:01:30.825Z,1011
2017-10-20T03:02:53.172Z,1010.98
2017-10-20T03:04:14.694Z,1011.03
2017-10-20T03:05:35.944Z,1011
2017-10-20T03:06:58.169Z,1010.99
2017-10-20T03:08:19.925Z,1011.06
2017-10-20T03:09:41.794Z,1011.06
2017-10-20T03:11:03.304Z,1010.99
2017-10-20T03:12:24.930Z,1010.97
2017-10-20T03:13:47.397Z,1010.97
2017-10-20T03:15:09.573Z,1010.95
2017-10-20T03:16:31.101Z,1010.99
2017-10-20T03:17:52.655Z,1010.98
2017-10-20T03:19:14.758Z,1010.97
2017-10-20T03:20:36.360Z,1010.99
2017-10-20T03:21:58.872Z,1010.88
2017-10-20T03:23:21.039Z,1010.89
2017-10-20T03:24:42.825Z,1010.89
2017-10-20T03:26:04.788Z,1010.91
2017-10-20T03:27:27.004Z,1010.91
2017-10-20T03:28:48.904Z,1010.91
2017-10-20T03:30:10.685Z,1010.88
2017-10-20T03:31:32.553Z,1010.9
2017-10-20T03:32:54.076Z,1010.86
2017-10-20T03:34:15.914Z,1010.88
2017-10-20T03:35:38.035Z,1010.88
2017-10-20T03:36:59.586Z,1010.92
2017-10-20T03:38:21.764Z,1010.9
2017-10-20T03:39:43.624Z,1010.88
2017-10-20T03:41:05.044Z,1010.92
2017-10-20T03:42:27.413Z,1010.94
2017-10-20T03:43:49.626Z,1010.92
2017-10-20T03:45:11.475Z,1010.98
2017-10-20T03:46:33.244Z,1011.01
2017-10-20T03:47:54.772Z,1011.03
2017-10-20T03:49:16.623Z,1011.07
2017-10-20T03:50:38.465Z,1011.09
2017-10-20T03:52:00.605Z,1011.06
2017-10-20T03:53:22.794Z,1011.03
2017-10-20T03:54:44.631Z,1010.99
2017-10-20T03:56:06.985Z,1010.98
2017-10-20T03:57:29.154Z,1011.02
2017-10-20T03:58:50.351Z,1010.98
2017-10-20T04:00:11.862Z,1011
2017-10-20T04:01:33.741Z,1011
2017-10-20T04:02:56.223Z,1011.01
2017-10-20T04:04:17.756Z,1010.96
2017-10-20T04:05:39.929Z,1010.99
2017-10-20T04:07:01.795Z,1010.96
2017-10-20T04:08:23.734Z,1010.93
2017-10-20T04:09:45.239Z,1010.9
2017-10-20T04:11:06.797Z,1010.86
2017-10-20T04:12:28.965Z,1010.87
2017-10-20T04:13:51.140Z,1010.81
2017-10-20T04:15:12.763Z,1010.79
2017-10-20T04:16:34.945Z,1010.71
2017-10-20T04:17:56.471Z,1010.74
2017-10-20T04:19:18.333Z,1010.76
2017-10-20T04:20:39.514Z,1010.75
2017-10-20T04:22:01.694Z,1010.72
2017-10-20T04:23:23.560Z,1010.71
2017-10-20T04:24:45.400Z,1010.73
2017-10-20T04:26:07.615Z,1010.78
2017-10-20T04:27:29.131Z,1010.75
2017-10-20T04:28:50.650Z,1010.83
2017-10-20T04:30:12.430Z,1010.81
2017-10-20T04:31:34.424Z,1010.81
2017-10-20T04:32:56.643Z,1010.75
2017-10-20T04:34:18.557Z,1010.73
2017-10-20T04:35:40.742Z,1010.85
2017-10-20T04:37:02.762Z,1010.79
2017-10-20T04:38:24.293Z,1010.85
2017-10-20T04:39:46.126Z,1010.89
2017-10-20T04:41:08.289Z,1010.9
2017-10-20T04:42:30.354Z,1010.94
2017-10-20T04:43:52.533Z,1010.95
2017-10-20T04:45:14.727Z,1010.89
2017-10-20T04:46:35.961Z,1010.87
2017-10-20T04:47:57.814Z,1010.95
2017-10-20T04:49:19.974Z,1010.91
2017-10-20T04:50:41.889Z,1010.83
2017-10-20T04:52:03.414Z,1010.8
2017-10-20T04:53:25.921Z,1010.73
2017-10-20T04:54:47.763Z,1010.75
2017-10-20T04:56:09.611Z,1010.74
2017-10-20T04:57:31.123Z,1010.73
2017-10-20T04:58:52.669Z,1010.79
2017-10-20T05:00:14.944Z,1010.72
2017-10-20T05:01:36.823Z,1010.63
2017-10-20T05:02:59.281Z,1010.58
2017-10-20T05:04:20.782Z,1010.54
2017-10-20T05:05:41.963Z,1010.51
2017-10-20T05:07:04.175Z,1010.49
2017-10-20T05:08:25.694Z,1010.45
2017-10-20T05:09:47.547Z,1010.4
2017-10-20T05:11:09.832Z,1010.42
2017-10-20T05:12:32.170Z,1010.42
2017-10-20T05:13:54.117Z,1010.45
2017-10-20T05:15:15.974Z,1010.49
2017-10-20T05:16:38.175Z,1010.48
2017-10-20T05:18:00.405Z,1010.5
2017-10-20T05:19:23.412Z,1010.48
2017-10-20T05:20:45.592Z,1010.43
2017-10-20T05:22:07.790Z,1010.34
2017-10-20T05:23:29.955Z,1010.3
2017-10-20T05:24:52.451Z,1010.23
2017-10-20T05:26:13.975Z,1010.15
2017-10-20T05:27:35.648Z,1010.15
2017-10-20T05:28:56.823Z,1010.1
2017-10-20T05:30:19.652Z,1010.07
2017-10-20T05:31:41.593Z,1010.07
2017-10-20T05:33:03.575Z,1010.03
2017-10-20T05:34:25.084Z,1010.08
2017-10-20T05:35:47.563Z,1009.98
2017-10-20T05:37:08.413Z,1010.01
2017-10-20T05:38:30.642Z,1010
2017-10-20T05:39:53.161Z,1009.99
2017-10-20T05:41:16.024Z,1009.99
2017-10-20T05:42:38.354Z,1010
2017-10-20T05:43:59.993Z,1009.97
2017-10-20T05:45:22.522Z,1010.03
2017-10-20T05:46:45.174Z,1010.04
2017-10-20T05:48:06.696Z,1010
2017-10-20T05:49:29.204Z,1010.01
2017-10-20T05:50:51.484Z,1009.99
2017-10-20T05:52:13.674Z,1009.99
2017-10-20T05:53:35.866Z,1009.95
2017-10-20T05:54:58.412Z,1010.01
2017-10-20T05:56:20.361Z,1010.01
2017-10-20T05:57:42.255Z,1010.04
2017-10-20T05:59:04.203Z,1009.95
2017-10-20T06:00:25.734Z,1010.06
2017-10-20T06:01:47.623Z,1010.08
2017-10-20T06:03:09.552Z,1009.95
2017-10-20T06:04:31.753Z,1010.1
2017-10-20T06:05:54.402Z,1009.94
2017-10-20T06:07:16.696Z,1009.92
2017-10-20T06:08:39.290Z,1009.95
2017-10-20T06:10:01.484Z,1009.93
2017-10-20T06:11:23.992Z,1009.88
2017-10-20T06:12:46.526Z,1009.92
2017-10-20T06:14:08.703Z,1009.89
2017-10-20T06:15:30.305Z,1009.88
2017-10-20T06:16:52.149Z,1009.96
2017-10-20T06:18:14.012Z,1010.02
2017-10-20T06:19:35.774Z,1010
2017-10-20T06:20:58.443Z,1009.99
2017-10-20T06:22:21.015Z,1010.03
2017-10-20T06:23:43.276Z,1010.08
2017-10-20T06:25:05.895Z,1010.15
2017-10-20T06:26:27.428Z,1010.14
2017-10-20T06:27:49.294Z,1010.05
2017-10-20T06:29:11.192Z,1010.01
2017-10-20T06:30:32.824Z,1010.09
2017-10-20T06:31:54.701Z,1010.15
2017-10-20T06:33:17.345Z,1010.15
2017-10-20T06:34:39.834Z,1010.23
2017-10-20T06:36:01.685Z,1010.24
2017-10-20T06:37:23.584Z,1010.28
2017-10-20T06:38:45.583Z,1010.34
2017-10-20T06:40:07.411Z,1010.3
2017-10-20T06:41:29.260Z,1010.33
2017-10-20T06:42:51.874Z,1010.31
2017-10-20T06:44:13.505Z,1010.36
2017-10-20T06:45:35.675Z,1010.41
2017-10-20T06:46:57.845Z,1010.36
2017-10-20T06:48:20.042Z,1010.41
2017-10-20T06:49:42.542Z,1010.4
2017-10-20T06:51:04.488Z,1010.4
2017-10-20T06:52:26.984Z,1010.44
2017-10-20T06:53:48.524Z,1010.47
2017-10-20T06:55:10.363Z,1010.48
2017-10-20T06:56:31.864Z,1010.49
2017-10-20T06:57:53.676Z,1010.49
2017-10-20T06:59:16.334Z,1010.45
2017-10-20T07:00:38.193Z,1010.44
2017-10-20T07:01:59.703Z,1010.42
2017-10-20T07:03:21.475Z,1010.44
2017-10-20T07:04:43.320Z,1010.48
2017-10-20T07:06:05.493Z,1010.42
2017-10-20T07:07:27.345Z,1010.46
2017-10-20T07:08:49.203Z,1010.51
2017-10-20T07:10:11.714Z,1010.55
2017-10-20T07:11:33.614Z,1010.58
2017-10-20T07:12:55.764Z,1010.65
2017-10-20T07:14:18.774Z,1010.66
2017-10-20T07:15:40.616Z,1010.68
2017-10-20T07:17:03.144Z,1010.66
2017-10-20T07:18:25.016Z,1010.71
2017-10-20T07:19:47.243Z,1010.72
2017-10-20T07:21:09.433Z,1010.74
2017-10-20T07:22:31.733Z,1010.78
2017-10-20T07:23:53.295Z,1010.81
2017-10-20T07:25:15.141Z,1010.85
2017-10-20T07:26:36.676Z,1010.84
2017-10-20T07:27:58.174Z,1010.9
2017-10-20T07:29:19.365Z,1010.91
2017-10-20T07:30:41.531Z,1010.88
2017-10-20T07:32:04.172Z,1010.87
2017-10-20T07:33:26.347Z,1010.91
2017-10-20T07:34:48.612Z,1010.91
2017-10-20T07:36:10.125Z,1010.9
2017-10-20T07:37:32.416Z,1010.91
2017-10-20T07:38:54.923Z,1011
2017-10-20T07:40:16.774Z,1010.98
2017-10-20T07:41:38.644Z,1010.97
2017-10-20T07:43:00.494Z,1010.98
2017-10-20T07:44:22.034Z,1010.96
2017-10-20T07:45:43.644Z,1011.06
2017-10-20T07:47:06.334Z,1011.08
2017-10-20T07:48:28.923Z,1011.04
2017-10-20T07:49:51.105Z,1011.07
2017-10-20T07:51:13.674Z,1010.95
2017-10-20T07:52:35.545Z,1010.94
2017-10-20T07:53:56.774Z,1010.99
2017-10-20T07:55:19.329Z,1011.07
2017-10-20T07:56:41.523Z,1011.2
2017-10-20T07:58:03.163Z,1011.24
2017-10-20T07:59:24.333Z,1011.27
2017-10-20T08:00:46.273Z,1011.26
2017-10-20T08:02:08.464Z,1011.24
2017-10-20T08:03:30.572Z,1011.26
2017-10-20T08:04:52.181Z,1011.32
2017-10-20T08:06:14.054Z,1011.4
2017-10-20T08:07:36.235Z,1011.34
2017-10-20T08:08:58.164Z,1011.31
2017-10-20T08:10:20.674Z,1011.29
2017-10-20T08:11:42.527Z,1011.23
2017-10-20T08:13:04.057Z,1011.3
2017-10-20T08:14:25.903Z,1011.27
2017-10-20T08:15:47.495Z,1011.32
2017-10-20T08:17:09.014Z,1011.32
2017-10-20T08:18:31.202Z,1011.33
2017-10-20T08:19:52.065Z,1011.32
2017-10-20T08:21:14.425Z,1011.36
2017-10-20T08:22:36.623Z,1011.38
2017-10-20T08:23:58.851Z,1011.47
2017-10-20T08:25:20.454Z,1011.47
2017-10-20T08:26:42.459Z,1011.41
2017-10-20T08:28:04.980Z,1011.44
2017-10-20T08:29:26.496Z,1011.45
2017-10-20T08:30:48.364Z,1011.48
2017-10-20T08:32:10.202Z,1011.5
2017-10-20T08:33:31.719Z,1011.43
2017-10-20T08:34:54.303Z,1011.46
2017-10-20T08:36:16.839Z,1011.48
2017-10-20T08:37:39.186Z,1011.47
2017-10-20T08:39:01.365Z,1011.41
2017-10-20T08:40:23.541Z,1011.38
2017-10-20T08:41:45.400Z,1011.4
2017-10-20T08:43:06.935Z,1011.43
2017-10-20T08:44:29.454Z,1011.45
2017-10-20T08:45:51.993Z,1011.44
2017-10-20T08:47:14.041Z,1011.42
2017-10-20T08:48:35.224Z,1011.44
2017-10-20T08:49:56.764Z,1011.49
2017-10-20T08:51:19.072Z,1011.51
2017-10-20T08:52:40.923Z,1011.46
2017-10-20T08:54:02.783Z,1011.48
2017-10-20T08:55:24.295Z,1011.48
2017-10-20T08:56:46.154Z,1011.46
2017-10-20T08:58:08.853Z,1011.54
2017-10-20T08:59:30.677Z,1011.5
2017-10-20T09:00:52.643Z,1011.49
2017-10-20T09:02:14.495Z,1011.42
2017-10-20T09:03:36.344Z,1011.45
2017-10-20T09:04:58.894Z,1011.51
2017-10-20T09:06:21.083Z,1011.44
2017-10-20T09:07:43.269Z,1011.46
2017-10-20T09:09:05.776Z,1011.37
2017-10-20T09:10:28.406Z,1011.43
2017-10-20T09:11:50.924Z,1011.37
2017-10-20T09:13:13.501Z,1011.39
2017-10-20T09:14:35.693Z,1011.35
2017-10-20T09:15:57.883Z,1011.35
2017-10-20T09:17:20.174Z,1011.33
2017-10-20T09:18:41.714Z,1011.39
2017-10-20T09:20:03.546Z,1011.39
2017-10-20T09:21:25.722Z,1011.33
2017-10-20T09:22:47.946Z,1011.25
2017-10-20T09:24:09.790Z,1011.27
2017-10-20T09:25:31.974Z,1011.23
2017-10-20T09:26:54.153Z,1011.26
2017-10-20T09:28:16.705Z,1011.29
2017-10-20T09:29:39.032Z,1011.31
2017-10-20T09:31:00.917Z,1011.32
2017-10-20T09:32:23.443Z,1011.27
2017-10-20T09:33:45.283Z,1011.24
2017-10-20T09:35:07.157Z,1011.24
2017-10-20T09:36:28.694Z,1011.21
2017-10-20T09:37:50.884Z,1011.18
2017-10-20T09:39:12.765Z,1011.15
2017-10-20T09:40:34.946Z,1011.2
2017-10-20T09:41:56.844Z,1011.18
2017-10-20T09:43:18.707Z,1011.14
2017-10-20T09:44:40.914Z,1011.13
2017-10-20T09:46:03.424Z,1011.08
2017-10-20T09:47:24.723Z,1011.06
2017-10-20T09:48:46.910Z,1011.09
2017-10-20T09:50:08.765Z,1011.08
2017-10-20T09:51:31.268Z,1011.07
2017-10-20T09:52:53.483Z,1010.97
2017-10-20T09:54:15.674Z,1010.9
2017-10-20T09:55:37.911Z,1010.89
2017-10-20T09:56:59.424Z,1010.88
2017-10-20T09:58:21.275Z,1010.95
2017-10-20T09:59:43.784Z,1011
2017-10-20T10:01:06.053Z,1010.98
2017-10-20T10:02:27.928Z,1010.89
2017-10-20T10:03:50.112Z,1010.86
2017-10-20T10:05:12.354Z,1010.81
2017-10-20T10:06:34.542Z,1010.76
2017-10-20T10:07:56.724Z,1010.71
2017-10-20T10:09:19.271Z,1010.8
2017-10-20T10:10:41.503Z,1010.79
2017-10-20T10:12:03.466Z,1010.81
2017-10-20T10:13:25.651Z,1010.84
2017-10-20T10:14:47.543Z,1010.83
2017-10-20T10:16:09.424Z,1010.8
2017-10-20T10:17:31.733Z,1010.86
2017-10-20T10:18:53.994Z,1010.78
2017-10-20T10:20:15.994Z,1010.77
2017-10-20T10:21:37.584Z,1010.71
2017-10-20T10:22:59.421Z,1010.67
2017-10-20T10:24:21.938Z,1010.71
2017-10-20T10:25:44.105Z,1010.66
2017-10-20T10:27:06.338Z,1010.64
2017-10-20T10:28:28.574Z,1010.65
2017-10-20T10:29:50.755Z,1010.65
2017-10-20T10:31:12.963Z,1010.67
2017-10-20T10:32:35.302Z,1010.61
2017-10-20T10:33:56.835Z,1010.7
2017-10-20T10:35:18.357Z,1010.7
2017-10-20T10:36:39.861Z,1010.67
2017-10-20T10:38:02.405Z,1010.64
2017-10-20T10:39:24.244Z,1010.67
2017-10-20T10:40:46.113Z,1010.69
2017-10-20T10:42:07.997Z,1010.72
2017-10-20T10:43:29.875Z,1010.71
2017-10-20T10:44:51.777Z,1010.68
2017-10-20T10:46:13.973Z,1010.73
2017-10-20T10:47:35.289Z,1010.73
2017-10-20T10:48:57.515Z,1010.73
2017-10-20T10:50:19.724Z,1010.75
2017-10-20T10:51:41.986Z,1010.78
2017-10-20T10:53:04.513Z,1010.82
2017-10-20T10:54:26.053Z,1010.74
2017-10-20T10:55:48.244Z,1010.75
2017-10-20T10:57:10.094Z,1010.8
2017-10-20T10:58:32.654Z,1010.76
2017-10-20T10:59:55.184Z,1010.78
2017-10-20T11:01:17.707Z,1010.76
2017-10-20T11:02:40.224Z,1010.78
2017-10-20T11:04:02.172Z,1010.83
2017-10-20T11:05:24.340Z,1010.83
2017-10-20T11:06:46.626Z,1010.84
2017-10-20T11:08:08.136Z,1010.83
2017-10-20T11:09:30.606Z,1010.83
2017-10-20T11:10:52.617Z,1010.73
2017-10-20T11:12:15.154Z,1010.76
2017-10-20T11:13:37.795Z,1010.66
2017-10-20T11:15:00.282Z,1010.74
2017-10-20T11:16:22.885Z,1010.71
2017-10-20T11:17:44.729Z,1010.71
2017-10-20T11:19:06.615Z,1010.66
2017-10-20T11:20:28.889Z,1010.66
2017-10-20T11:21:51.419Z,1010.54
2017-10-20T11:23:13.610Z,1010.42
2017-10-20T11:24:35.805Z,1010.38
2017-10-20T11:25:58.497Z,1010.41
2017-10-20T11:27:20.996Z,1010.38
2017-10-20T11:28:43.554Z,1010.33
2017-10-20T11:30:06.084Z,1010.26
2017-10-20T11:31:28.366Z,1010.22
2017-10-20T11:32:50.584Z,1010.33
2017-10-20T11:34:12.425Z,1010.37
2017-10-20T11:35:34.955Z,1010.39
2017-10-20T11:36:57.587Z,1010.35
2017-10-20T11:38:19.767Z,1010.43
2017-10-20T11:39:41.718Z,1010.48
2017-10-20T11:41:03.280Z,1010.45
2017-10-20T11:42:25.863Z,1010.47
2017-10-20T11:43:47.746Z,1010.53
2017-10-20T11:45:10.016Z,1010.5
2017-10-20T11:46:31.896Z,1010.51
2017-10-20T11:47:54.425Z,1010.49
2017-10-20T11:49:16.278Z,1010.38
2017-10-20T11:50:38.816Z,1010.27
2017-10-20T11:52:01.006Z,1010.24
2017-10-20T11:53:23.534Z,1010.15
2017-10-20T11:54:45.813Z,1010.1
2017-10-20T11:56:08.099Z,1010.1
2017-10-20T11:57:30.724Z,1010.22
2017-10-20T11:58:52.828Z,1010.25
2017-10-20T12:00:15.015Z,1010.25
2017-10-20T12:01:37.402Z,1010.28
2017-10-20T12:02:59.268Z,1010.36
2017-10-20T12:04:21.466Z,1010.43
2017-10-20T12:05:43.346Z,1010.4
2017-10-20T12:07:05.882Z,1010.32
2017-10-20T12:08:28.072Z,1010.27
2017-10-20T12:09:50.259Z,1010.25
2017-10-20T12:11:12.794Z,1010.17
2017-10-20T12:12:34.782Z,1010.12
2017-10-20T12:13:57.309Z,1010.16
2017-10-20T12:15:19.823Z,1010.15
2017-10-20T12:16:41.693Z,1010.11
2017-10-20T12:18:04.211Z,1010.1
2017-10-20T12:19:26.094Z,1010.14
2017-10-20T12:20:48.594Z,1010.11
2017-10-20T12:22:10.777Z,1010.06
2017-10-20T12:23:32.976Z,1010
2017-10-20T12:24:54.870Z,1009.94
2017-10-20T12:26:16.394Z,1009.98
2017-10-20T12:27:37.957Z,1009.94
2017-10-20T12:29:00.538Z,1010
2017-10-20T12:30:22.738Z,1010.04
2017-10-20T12:31:44.946Z,1010.11
2017-10-20T12:33:07.474Z,1010.11
2017-10-20T12:34:28.987Z,1010.03
2017-10-20T12:35:51.167Z,1010.01
2017-10-20T12:37:13.684Z,1010.03
2017-10-20T12:38:35.898Z,1010.01
2017-10-20T12:39:58.442Z,1010
2017-10-20T12:41:20.631Z,1009.93
2017-10-20T12:42:43.175Z,1009.96
2017-10-20T12:44:05.364Z,1009.96
2017-10-20T12:45:27.215Z,1009.98
2017-10-20T12:46:49.734Z,1009.97
2017-10-20T12:48:11.594Z,1009.97
2017-10-20T12:49:33.941Z,1009.92
2017-10-20T12:50:55.812Z,1009.82
2017-10-20T12:52:17.759Z,1009.84
2017-10-20T12:53:39.985Z,1009.85
2017-10-20T12:55:02.166Z,1009.79
2017-10-20T12:56:24.405Z,1009.81
2017-10-20T12:57:46.658Z,1009.82
2017-10-20T12:59:08.525Z,1009.73
2017-10-20T13:00:30.795Z,1009.82
2017-10-20T13:01:53.431Z,1009.88
2017-10-20T13:03:15.293Z,1009.86
2017-10-20T13:04:37.477Z,1009.83
2017-10-20T13:05:59.698Z,1009.9
2017-10-20T13:07:22.244Z,1009.96
2017-10-20T13:08:44.465Z,1010.04
2017-10-20T13:10:06.999Z,1009.96
2017-10-20T13:11:29.639Z,1010.09
2017-10-20T13:12:52.174Z,1010.07
2017-10-20T13:14:14.413Z,1010
2017-10-20T13:15:36.633Z,1010.09
2017-10-20T13:16:59.155Z,1010.07
2017-10-20T13:18:21.752Z,1010
2017-10-20T13:19:43.971Z,1010.01
2017-10-20T13:21:06.295Z,1010.07
2017-10-20T13:22:28.485Z,1010.05
2017-10-20T13:23:50.343Z,1010.05
2017-10-20T13:25:12.915Z,1010.1
2017-10-20T13:26:35.099Z,1010.13
2017-10-20T13:27:57.001Z,1010.17
2017-10-20T13:29:19.202Z,1010.12
2017-10-20T13:30:41.735Z,1010.13
2017-10-20T13:32:04.266Z,1010.1
2017-10-20T13:33:26.820Z,1010.11
2017-10-20T13:34:48.754Z,1010.15
2017-10-20T13:36:10.649Z,1010.14
2017-10-20T13:37:33.177Z,1010.18
2017-10-20T13:38:55.404Z,1010.2
2017-10-20T13:40:17.949Z,1010.16
2017-10-20T13:41:40.485Z,1010.09
2017-10-20T13:43:03.048Z,1010.1
2017-10-20T13:44:25.567Z,1010.1
2017-10-20T13:45:47.863Z,1010.1
2017-10-20T13:47:10.108Z,1010.13
2017-10-20T13:48:32.775Z,1010.12
2017-10-20T13:49:55.310Z,1010.14
2017-10-20T13:51:17.923Z,1010.17
2017-10-20T13:52:40.114Z,1010.18
2017-10-20T13:54:02.305Z,1010.17
2017-10-20T13:55:24.489Z,1010.21
2017-10-20T13:56:46.698Z,1010.21
2017-10-20T13:58:09.304Z,1010.17
2017-10-20T13:59:31.585Z,1010.21
2017-10-20T14:00:53.795Z,1010.16
2017-10-20T14:02:16.334Z,1010.12
2017-10-20T14:03:38.882Z,1010.11
2017-10-20T14:05:01.098Z,1010.09
2017-10-20T14:06:23.297Z,1010.06
2017-10-20T14:07:45.862Z,1010.07
2017-10-20T14:09:08.455Z,1010.03
2017-10-20T14:10:31.012Z,1010.04
2017-10-20T14:11:53.574Z,1010.03
2017-10-20T14:13:16.115Z,1010.04
2017-10-20T14:14:38.686Z,1010.06
2017-10-20T14:16:00.827Z,1010.06
2017-10-20T14:17:23.044Z,1010.14
2017-10-20T14:18:45.568Z,1010.1
2017-10-20T14:20:07.559Z,1010.06
2017-10-20T14:21:30.092Z,1010.12
2017-10-20T14:22:52.305Z,1010.1
2017-10-20T14:24:14.843Z,1010.12
2017-10-20T14:25:37.413Z,1010.13
2017-10-20T14:26:59.940Z,1010.18
2017-10-20T14:28:22.468Z,1010.21
2017-10-20T14:29:44.998Z,1010.24
2017-10-20T14:31:06.981Z,1010.26
2017-10-20T14:32:29.518Z,1010.25
2017-10-20T14:33:51.836Z,1010.24
2017-10-20T14:35:14.047Z,1010.27
2017-10-20T14:36:36.646Z,1010.27
2017-10-20T14:37:59.466Z,1010.26
2017-10-20T14:39:21.804Z,1010.28
2017-10-20T14:40:44.036Z,1010.34
2017-10-20T14:42:05.543Z,1010.33
2017-10-20T14:43:28.268Z,1010.3
2017-10-20T14:44:50.542Z,1010.33
2017-10-20T14:46:13.184Z,1010.34
2017-10-20T14:47:35.057Z,1010.35
2017-10-20T14:48:56.293Z,1010.43
2017-10-20T14:50:18.824Z,1010.39
2017-10-20T14:51:41.008Z,1010.45
2017-10-20T14:53:02.981Z,1010.47
2017-10-20T14:54:25.207Z,1010.44
2017-10-20T14:55:47.444Z,1010.46
2017-10-20T14:57:09.362Z,1010.49
2017-10-20T14:58:31.256Z,1010.46
2017-10-20T14:59:53.468Z,1010.45
2017-10-20T15:01:15.339Z,1010.48
2017-10-20T15:02:37.855Z,1010.51
2017-10-20T15:04:00.534Z,1010.49
2017-10-20T15:05:22.788Z,1010.47
2017-10-20T15:06:45.095Z,1010.53
2017-10-20T15:08:06.957Z,1010.53
2017-10-20T15:09:29.499Z,1010.56
2017-10-20T15:10:52.168Z,1010.56
2017-10-20T15:12:14.375Z,1010.57
2017-10-20T15:13:36.577Z,1010.55
2017-10-20T15:14:58.865Z,1010.54
2017-10-20T15:16:21.736Z,1010.58
2017-10-20T15:17:44.134Z,1010.57
2017-10-20T15:19:06.681Z,1010.58
2017-10-20T15:20:28.542Z,1010.61
2017-10-20T15:21:51.305Z,1010.63
2017-10-20T15:23:13.525Z,1010.64
2017-10-20T15:24:35.747Z,1010.63
2017-10-20T15:25:57.668Z,1010.68
2017-10-20T15:27:20.419Z,1010.67
2017-10-20T15:28:42.626Z,1010.76
2017-10-20T15:30:05.186Z,1010.74
2017-10-20T15:31:27.431Z,1010.76
2017-10-20T15:32:49.971Z,1010.81
2017-10-20T15:34:11.545Z,1010.88
2017-10-20T15:35:33.744Z,1010.83
2017-10-20T15:36:56.000Z,1010.87
2017-10-20T15:38:18.192Z,1010.88
2017-10-20T15:39:40.434Z,1010.86
2017-10-20T15:41:02.646Z,1010.95
2017-10-20T15:42:24.626Z,1010.92
2017-10-20T15:43:47.135Z,1010.88
2017-10-20T15:45:09.331Z,1010.87
2017-10-20T15:46:31.555Z,1010.91
2017-10-20T15:47:53.765Z,1010.99
2017-10-20T15:49:16.555Z,1010.99
2017-10-20T15:50:39.095Z,1010.96
2017-10-20T15:52:01.653Z,1010.98
2017-10-20T15:53:23.509Z,1011
2017-10-20T15:54:45.825Z,1011.04
2017-10-20T15:56:08.057Z,1011.05
2017-10-20T15:57:30.594Z,1011.06
2017-10-20T15:58:52.778Z,1011.11
2017-10-20T16:00:15.231Z,1011.14
2017-10-20T16:01:37.815Z,1011.16
2017-10-20T16:03:00.064Z,1011.13
2017-10-20T16:04:22.026Z,1011.13
2017-10-20T16:05:44.277Z,1011.13
2017-10-20T16:07:06.495Z,1011.18
2017-10-20T16:08:29.088Z,1011.12
2017-10-20T16:09:51.392Z,1011.2
2017-10-20T16:11:13.987Z,1011.2
2017-10-20T16:12:36.528Z,1011.18
2017-10-20T16:13:59.204Z,1011.21
2017-10-20T16:15:21.435Z,1011.18
2017-10-20T16:16:44.001Z,1011.26
2017-10-20T16:18:05.961Z,1011.24
2017-10-20T16:19:28.187Z,1011.26
2017-10-20T16:20:50.373Z,1011.21
2017-10-20T16:22:11.936Z,1011.26
2017-10-20T16:23:34.149Z,1011.28
2017-10-20T16:24:56.016Z,1011.32
2017-10-20T16:26:17.605Z,1011.3
2017-10-20T16:27:40.164Z,1011.35
2017-10-20T16:29:02.017Z,1011.42
2017-10-20T16:30:23.895Z,1011.51
2017-10-20T16:31:46.445Z,1011.55
2017-10-20T16:33:08.677Z,1011.6
2017-10-20T16:34:31.196Z,1011.67
2017-10-20T16:35:53.777Z,1011.64
2017-10-20T16:37:16.138Z,1011.67
2017-10-20T16:38:38.684Z,1011.85
2017-10-20T16:40:00.877Z,1011.74